sensor_id;sensor_type;location;lat;lon;timestamp;temperature;humidity
10344;DHT22;5217;43.960;10.954;2022-12-29T00:01:11;15.60;99.90
10344;DHT22;5217;43.960;10.954;2022-12-29T00:03:40;15.50;99.90
10344;DHT22;5217;43.960;10.954;2022-12-29T00:06:08;15.50;99.90
10344;DHT22;5217;43.960;10.954;2022-12-29T00:08:37;15.50;99.90
10344;DHT22;5217;43.960;10.954;2022-12-29T00:11:08;15.50;99.90
10344;DHT22;5217;43.960;10.954;2022-12-29T00:13:37;15.60;99.90
10344;DHT22;5217;43.960;10.954;2022-12-29T00:16:24;15.60;99.90
10344;DHT22;5217;43.960;10.954;2022-12-29T00:18:53;15.50;99.90
10344;DHT22;5217;43.960;10.954;2022-12-29T00:21:23;15.50;99.90
10344;DHT22;5217;43.960;10.954;2022-12-29T00:24:13;15.50;99.90
10344;DHT22;5217;43.960;10.954;2022-12-29T00:27:10;15.50;99.90
10344;DHT22;5217;43.960;10.954;2022-12-29T00:29:56;15.50;99.90
10344;DHT22;5217;43.960;10.954;2022-12-29T00:32:45;15.50;99.90
10344;DHT22;5217;43.960;10.954;2022-12-29T00:35:33;15.50;99.90
10344;DHT22;5217;43.960;10.954;2022-12-29T00:38:05;15.50;99.90
10344;DHT22;5217;43.960;10.954;2022-12-29T00:40:52;15.50;99.90
10344;DHT22;5217;43.960;10.954;2022-12-29T00:43:38;15.50;99.90
10344;DHT22;5217;43.960;10.954;2022-12-29T00:46:24;15.50;99.90
10344;DHT22;5217;43.960;10.954;2022-12-29T00:48:53;15.50;99.90
10344;DHT22;5217;43.960;10.954;2022-12-29T00:51:39;15.50;99.90
10344;DHT22;5217;43.960;10.954;2022-12-29T00:54:08;15.50;99.90
10344;DHT22;5217;43.960;10.954;2022-12-29T00:56:36;15.50;99.90
10344;DHT22;5217;43.960;10.954;2022-12-29T00:59:06;15.50;99.90
10344;DHT22;5217;43.960;10.954;2022-12-29T01:01:36;15.50;99.90
10344;DHT22;5217;43.960;10.954;2022-12-29T01:04:07;15.50;99.90
10344;DHT22;5217;43.960;10.954;2022-12-29T01:06:37;15.50;99.90
10344;DHT22;5217;43.960;10.954;2022-12-29T01:09:06;15.50;99.90
10344;DHT22;5217;43.960;10.954;2022-12-29T01:11:52;15.50;99.90
10344;DHT22;5217;43.960;10.954;2022-12-29T01:14:22;15.50;99.90
10344;DHT22;5217;43.960;10.954;2022-12-29T01:16:51;15.50;99.90
10344;DHT22;5217;43.960;10.954;2022-12-29T01:19:21;15.50;99.90
10344;DHT22;5217;43.960;10.954;2022-12-29T01:21:49;15.50;99.90
10344;DHT22;5217;43.960;10.954;2022-12-29T01:24:19;15.50;99.90
10344;DHT22;5217;43.960;10.954;2022-12-29T01:26:48;15.50;99.90
10344;DHT22;5217;43.960;10.954;2022-12-29T01:29:17;15.60;99.90
10344;DHT22;5217;43.960;10.954;2022-12-29T01:31:45;15.50;99.90
10344;DHT22;5217;43.960;10.954;2022-12-29T01:34:14;15.50;99.90
10344;DHT22;5217;43.960;10.954;2022-12-29T01:36:44;15.50;99.90
10344;DHT22;5217;43.960;10.954;2022-12-29T01:39:12;15.50;99.90
10344;DHT22;5217;43.960;10.954;2022-12-29T01:41:42;15.50;99.90
10344;DHT22;5217;43.960;10.954;2022-12-29T01:44:39;15.50;99.90
10344;DHT22;5217;43.960;10.954;2022-12-29T01:47:19;15.50;99.90
10344;DHT22;5217;43.960;10.954;2022-12-29T01:49:48;15.50;99.90
10344;DHT22;5217;43.960;10.954;2022-12-29T01:52:18;15.50;99.90
10344;DHT22;5217;43.960;10.954;2022-12-29T01:54:49;15.50;99.90
10344;DHT22;5217;43.960;10.954;2022-12-29T01:57:22;15.50;99.90
10344;DHT22;5217;43.960;10.954;2022-12-29T01:59:54;15.50;99.90
10344;DHT22;5217;43.960;10.954;2022-12-29T02:02:24;15.50;99.90
10344;DHT22;5217;43.960;10.954;2022-12-29T02:04:58;15.50;99.90
10344;DHT22;5217;43.960;10.954;2022-12-29T02:07:32;15.50;99.90
10344;DHT22;5217;43.960;10.954;2022-12-29T02:10:01;15.50;99.90
10344;DHT22;5217;43.960;10.954;2022-12-29T02:12:30;15.50;99.90
10344;DHT22;5217;43.960;10.954;2022-12-29T02:14:59;15.50;99.90
10344;DHT22;5217;43.960;10.954;2022-12-29T02:17:42;15.50;99.90
10344;DHT22;5217;43.960;10.954;2022-12-29T02:23:37;15.50;99.90
10344;DHT22;5217;43.960;10.954;2022-12-29T02:26:22;15.50;99.90
10344;DHT22;5217;43.960;10.954;2022-12-29T02:29:21;15.50;99.90
10344;DHT22;5217;43.960;10.954;2022-12-29T02:31:59;15.50;99.90
10344;DHT22;5217;43.960;10.954;2022-12-29T02:34:38;15.50;99.90
10344;DHT22;5217;43.960;10.954;2022-12-29T02:37:17;15.60;99.90
10344;DHT22;5217;43.960;10.954;2022-12-29T02:39:52;15.50;99.90
10344;DHT22;5217;43.960;10.954;2022-12-29T02:42:27;15.50;99.90
10344;DHT22;5217;43.960;10.954;2022-12-29T02:45:03;15.50;99.90
10344;DHT22;5217;43.960;10.954;2022-12-29T02:47:39;15.50;99.90
10344;DHT22;5217;43.960;10.954;2022-12-29T02:50:15;15.50;99.90
10344;DHT22;5217;43.960;10.954;2022-12-29T02:52:50;15.50;99.90
10344;DHT22;5217;43.960;10.954;2022-12-29T02:55:19;15.50;99.90
10344;DHT22;5217;43.960;10.954;2022-12-29T02:57:47;15.50;99.90
10344;DHT22;5217;43.960;10.954;2022-12-29T03:00:16;15.50;99.90
10344;DHT22;5217;43.960;10.954;2022-12-29T03:03:17;15.50;99.90
10344;DHT22;5217;43.960;10.954;2022-12-29T03:06:01;15.50;99.90
10344;DHT22;5217;43.960;10.954;2022-12-29T03:08:40;15.50;99.90
10344;DHT22;5217;43.960;10.954;2022-12-29T03:11:13;15.50;99.90
10344;DHT22;5217;43.960;10.954;2022-12-29T03:13:59;15.50;99.90
10344;DHT22;5217;43.960;10.954;2022-12-29T03:16:49;15.50;99.90
10344;DHT22;5217;43.960;10.954;2022-12-29T03:19:24;15.50;99.90
10344;DHT22;5217;43.960;10.954;2022-12-29T03:21:56;15.50;99.90
10344;DHT22;5217;43.960;10.954;2022-12-29T03:24:47;15.50;99.90
10344;DHT22;5217;43.960;10.954;2022-12-29T03:27:20;15.50;99.90
10344;DHT22;5217;43.960;10.954;2022-12-29T03:29:52;15.60;99.90
10344;DHT22;5217;43.960;10.954;2022-12-29T03:32:24;15.50;99.90
10344;DHT22;5217;43.960;10.954;2022-12-29T03:34:55;15.60;99.90
10344;DHT22;5217;43.960;10.954;2022-12-29T03:37:28;15.60;99.90
10344;DHT22;5217;43.960;10.954;2022-12-29T03:39:57;15.50;99.90
10344;DHT22;5217;43.960;10.954;2022-12-29T03:42:28;15.50;99.90
10344;DHT22;5217;43.960;10.954;2022-12-29T03:44:58;15.50;99.90
10344;DHT22;5217;43.960;10.954;2022-12-29T03:47:27;15.50;99.90
10344;DHT22;5217;43.960;10.954;2022-12-29T03:49:56;15.50;99.90
10344;DHT22;5217;43.960;10.954;2022-12-29T03:52:25;15.50;99.90
10344;DHT22;5217;43.960;10.954;2022-12-29T03:54:53;15.50;99.90
10344;DHT22;5217;43.960;10.954;2022-12-29T03:57:21;15.50;99.90
10344;DHT22;5217;43.960;10.954;2022-12-29T03:59:50;15.50;99.90
10344;DHT22;5217;43.960;10.954;2022-12-29T04:02:18;15.50;99.90
10344;DHT22;5217;43.960;10.954;2022-12-29T04:04:47;15.50;99.90
10344;DHT22;5217;43.960;10.954;2022-12-29T04:07:16;15.50;99.90
10344;DHT22;5217;43.960;10.954;2022-12-29T04:09:45;15.50;99.90
10344;DHT22;5217;43.960;10.954;2022-12-29T04:12:13;15.50;99.90
10344;DHT22;5217;43.960;10.954;2022-12-29T04:14:42;15.50;99.90
10344;DHT22;5217;43.960;10.954;2022-12-29T04:17:11;15.50;99.90
10344;DHT22;5217;43.960;10.954;2022-12-29T04:19:40;15.40;99.90
10344;DHT22;5217;43.960;10.954;2022-12-29T04:22:08;15.40;99.90
10344;DHT22;5217;43.960;10.954;2022-12-29T04:24:38;15.40;99.90
10344;DHT22;5217;43.960;10.954;2022-12-29T04:27:06;15.40;99.90
10344;DHT22;5217;43.960;10.954;2022-12-29T04:29:34;15.40;99.90
10344;DHT22;5217;43.960;10.954;2022-12-29T04:32:02;15.40;99.90
10344;DHT22;5217;43.960;10.954;2022-12-29T04:34:31;15.40;99.90
10344;DHT22;5217;43.960;10.954;2022-12-29T04:36:59;15.40;99.90
10344;DHT22;5217;43.960;10.954;2022-12-29T04:39:27;15.40;99.90
10344;DHT22;5217;43.960;10.954;2022-12-29T04:41:57;15.40;99.90
10344;DHT22;5217;43.960;10.954;2022-12-29T04:44:25;15.40;99.90
10344;DHT22;5217;43.960;10.954;2022-12-29T04:46:54;15.40;99.90
10344;DHT22;5217;43.960;10.954;2022-12-29T04:49:22;15.40;99.90
10344;DHT22;5217;43.960;10.954;2022-12-29T04:51:51;15.40;99.90
10344;DHT22;5217;43.960;10.954;2022-12-29T04:54:19;15.40;99.90
10344;DHT22;5217;43.960;10.954;2022-12-29T04:56:47;15.40;99.90
10344;DHT22;5217;43.960;10.954;2022-12-29T04:59:17;15.40;99.90
10344;DHT22;5217;43.960;10.954;2022-12-29T05:01:45;15.30;99.90
10344;DHT22;5217;43.960;10.954;2022-12-29T05:04:13;15.30;99.90
10344;DHT22;5217;43.960;10.954;2022-12-29T05:06:42;15.30;99.90
10344;DHT22;5217;43.960;10.954;2022-12-29T05:09:10;15.30;99.90
10344;DHT22;5217;43.960;10.954;2022-12-29T05:11:39;15.30;99.90
10344;DHT22;5217;43.960;10.954;2022-12-29T05:14:08;15.30;99.90
10344;DHT22;5217;43.960;10.954;2022-12-29T05:16:37;15.30;99.90
10344;DHT22;5217;43.960;10.954;2022-12-29T05:19:06;15.30;99.90
10344;DHT22;5217;43.960;10.954;2022-12-29T05:21:34;15.30;99.90
10344;DHT22;5217;43.960;10.954;2022-12-29T05:24:03;15.30;99.90
10344;DHT22;5217;43.960;10.954;2022-12-29T05:26:31;15.30;99.90
10344;DHT22;5217;43.960;10.954;2022-12-29T05:28:59;15.30;99.90
10344;DHT22;5217;43.960;10.954;2022-12-29T05:31:28;15.30;99.90
10344;DHT22;5217;43.960;10.954;2022-12-29T05:33:58;15.20;99.90
10344;DHT22;5217;43.960;10.954;2022-12-29T05:36:26;15.30;99.90
10344;DHT22;5217;43.960;10.954;2022-12-29T05:39:03;15.20;99.90
10344;DHT22;5217;43.960;10.954;2022-12-29T05:41:31;15.20;99.90
10344;DHT22;5217;43.960;10.954;2022-12-29T05:44:00;15.20;99.90
10344;DHT22;5217;43.960;10.954;2022-12-29T05:46:28;15.30;99.90
10344;DHT22;5217;43.960;10.954;2022-12-29T05:48:58;15.20;99.90
10344;DHT22;5217;43.960;10.954;2022-12-29T05:51:26;15.20;99.90
10344;DHT22;5217;43.960;10.954;2022-12-29T05:53:55;15.30;99.90
10344;DHT22;5217;43.960;10.954;2022-12-29T05:56:23;15.30;99.90
10344;DHT22;5217;43.960;10.954;2022-12-29T05:58:51;15.20;99.90
10344;DHT22;5217;43.960;10.954;2022-12-29T06:01:20;15.30;99.90
10344;DHT22;5217;43.960;10.954;2022-12-29T06:03:48;15.30;99.90
10344;DHT22;5217;43.960;10.954;2022-12-29T06:06:18;15.20;99.90
10344;DHT22;5217;43.960;10.954;2022-12-29T06:08:46;15.20;99.90
10344;DHT22;5217;43.960;10.954;2022-12-29T06:11:15;15.20;99.90
10344;DHT22;5217;43.960;10.954;2022-12-29T06:13:43;15.20;99.90
10344;DHT22;5217;43.960;10.954;2022-12-29T06:16:11;15.20;99.90
10344;DHT22;5217;43.960;10.954;2022-12-29T06:18:40;15.20;99.90
10344;DHT22;5217;43.960;10.954;2022-12-29T06:21:08;15.30;99.90
10344;DHT22;5217;43.960;10.954;2022-12-29T06:23:38;15.30;99.90
10344;DHT22;5217;43.960;10.954;2022-12-29T06:26:06;15.30;99.90
10344;DHT22;5217;43.960;10.954;2022-12-29T06:28:35;15.30;99.90
10344;DHT22;5217;43.960;10.954;2022-12-29T06:31:03;15.30;99.90
10344;DHT22;5217;43.960;10.954;2022-12-29T06:33:32;15.30;99.90
10344;DHT22;5217;43.960;10.954;2022-12-29T06:36:00;15.30;99.90
10344;DHT22;5217;43.960;10.954;2022-12-29T06:38:28;15.30;99.90
10344;DHT22;5217;43.960;10.954;2022-12-29T06:40:58;15.30;99.90
10344;DHT22;5217;43.960;10.954;2022-12-29T06:43:26;15.30;99.90
10344;DHT22;5217;43.960;10.954;2022-12-29T06:45:54;15.30;99.90
10344;DHT22;5217;43.960;10.954;2022-12-29T06:48:23;15.30;99.90
10344;DHT22;5217;43.960;10.954;2022-12-29T06:50:51;15.30;99.90
10344;DHT22;5217;43.960;10.954;2022-12-29T06:53:20;15.30;99.90
10344;DHT22;5217;43.960;10.954;2022-12-29T06:55:48;15.30;99.90
10344;DHT22;5217;43.960;10.954;2022-12-29T06:58:18;15.30;99.90
10344;DHT22;5217;43.960;10.954;2022-12-29T07:00:47;15.20;99.90
10344;DHT22;5217;43.960;10.954;2022-12-29T07:03:16;15.20;99.90
10344;DHT22;5217;43.960;10.954;2022-12-29T07:05:44;15.30;99.90
10344;DHT22;5217;43.960;10.954;2022-12-29T07:08:12;15.30;99.90
10344;DHT22;5217;43.960;10.954;2022-12-29T07:10:41;15.30;99.90
10344;DHT22;5217;43.960;10.954;2022-12-29T07:13:09;15.20;99.90
10344;DHT22;5217;43.960;10.954;2022-12-29T07:15:39;15.20;99.90
10344;DHT22;5217;43.960;10.954;2022-12-29T07:18:07;15.20;99.90
10344;DHT22;5217;43.960;10.954;2022-12-29T07:20:35;15.20;99.90
10344;DHT22;5217;43.960;10.954;2022-12-29T07:23:04;15.20;99.90
10344;DHT22;5217;43.960;10.954;2022-12-29T07:25:33;15.20;99.90
10344;DHT22;5217;43.960;10.954;2022-12-29T07:28:02;15.20;99.90
10344;DHT22;5217;43.960;10.954;2022-12-29T07:30:30;15.20;99.90
10344;DHT22;5217;43.960;10.954;2022-12-29T07:33:00;15.30;99.90
10344;DHT22;5217;43.960;10.954;2022-12-29T07:35:28;15.20;99.90
10344;DHT22;5217;43.960;10.954;2022-12-29T07:37:56;15.20;99.90
10344;DHT22;5217;43.960;10.954;2022-12-29T07:40:25;15.20;99.90
10344;DHT22;5217;43.960;10.954;2022-12-29T07:42:53;15.20;99.90
10344;DHT22;5217;43.960;10.954;2022-12-29T07:45:21;15.20;99.90
10344;DHT22;5217;43.960;10.954;2022-12-29T07:47:50;15.20;99.90
10344;DHT22;5217;43.960;10.954;2022-12-29T07:50:20;15.20;99.90
10344;DHT22;5217;43.960;10.954;2022-12-29T07:52:48;15.20;99.90
10344;DHT22;5217;43.960;10.954;2022-12-29T07:55:17;15.20;99.90
10344;DHT22;5217;43.960;10.954;2022-12-29T07:57:45;15.20;99.90
10344;DHT22;5217;43.960;10.954;2022-12-29T08:00:14;15.20;99.90
10344;DHT22;5217;43.960;10.954;2022-12-29T08:02:43;15.20;99.90
10344;DHT22;5217;43.960;10.954;2022-12-29T08:05:11;15.20;99.90
10344;DHT22;5217;43.960;10.954;2022-12-29T08:07:42;15.30;99.90
10344;DHT22;5217;43.960;10.954;2022-12-29T08:10:11;15.30;99.90
10344;DHT22;5217;43.960;10.954;2022-12-29T08:12:41;15.20;99.90
10344;DHT22;5217;43.960;10.954;2022-12-29T08:15:10;15.20;99.90
10344;DHT22;5217;43.960;10.954;2022-12-29T08:17:39;15.20;99.90
10344;DHT22;5217;43.960;10.954;2022-12-29T08:20:08;15.30;99.90
10344;DHT22;5217;43.960;10.954;2022-12-29T08:22:37;15.20;99.90
10344;DHT22;5217;43.960;10.954;2022-12-29T08:25:08;15.20;99.90
10344;DHT22;5217;43.960;10.954;2022-12-29T08:27:36;15.30;99.90
10344;DHT22;5217;43.960;10.954;2022-12-29T08:30:06;15.30;99.90
10344;DHT22;5217;43.960;10.954;2022-12-29T08:32:34;15.30;99.90
10344;DHT22;5217;43.960;10.954;2022-12-29T08:35:03;15.30;99.90
10344;DHT22;5217;43.960;10.954;2022-12-29T08:37:32;15.30;99.90
10344;DHT22;5217;43.960;10.954;2022-12-29T08:40:01;15.30;99.90
10344;DHT22;5217;43.960;10.954;2022-12-29T08:42:32;15.20;99.90
10344;DHT22;5217;43.960;10.954;2022-12-29T08:45:00;15.30;99.90
10344;DHT22;5217;43.960;10.954;2022-12-29T08:47:29;15.30;99.90
10344;DHT22;5217;43.960;10.954;2022-12-29T08:49:57;15.30;99.90
10344;DHT22;5217;43.960;10.954;2022-12-29T08:52:26;15.30;99.90
10344;DHT22;5217;43.960;10.954;2022-12-29T08:54:54;15.30;99.90
10344;DHT22;5217;43.960;10.954;2022-12-29T08:57:22;15.30;99.90
10344;DHT22;5217;43.960;10.954;2022-12-29T08:59:53;15.30;99.90
10344;DHT22;5217;43.960;10.954;2022-12-29T09:02:21;15.40;99.90
10344;DHT22;5217;43.960;10.954;2022-12-29T09:04:50;15.30;99.90
10344;DHT22;5217;43.960;10.954;2022-12-29T09:07:19;15.30;99.90
10344;DHT22;5217;43.960;10.954;2022-12-29T09:09:47;15.30;99.90
10344;DHT22;5217;43.960;10.954;2022-12-29T09:12:16;15.40;99.90
10344;DHT22;5217;43.960;10.954;2022-12-29T09:14:46;15.30;99.90
10344;DHT22;5217;43.960;10.954;2022-12-29T09:17:15;15.40;99.90
10344;DHT22;5217;43.960;10.954;2022-12-29T09:20:01;15.40;99.90
10344;DHT22;5217;43.960;10.954;2022-12-29T09:22:29;15.40;99.90
10344;DHT22;5217;43.960;10.954;2022-12-29T09:24:58;15.40;99.90
10344;DHT22;5217;43.960;10.954;2022-12-29T09:27:26;15.40;99.90
10344;DHT22;5217;43.960;10.954;2022-12-29T09:29:55;15.40;99.90
10344;DHT22;5217;43.960;10.954;2022-12-29T09:32:25;15.50;99.90
10344;DHT22;5217;43.960;10.954;2022-12-29T09:34:59;15.50;99.90
10344;DHT22;5217;43.960;10.954;2022-12-29T09:37:28;15.50;99.90
10344;DHT22;5217;43.960;10.954;2022-12-29T09:39:56;15.50;99.90
10344;DHT22;5217;43.960;10.954;2022-12-29T09:42:28;15.50;99.90
10344;DHT22;5217;43.960;10.954;2022-12-29T09:45:08;15.60;99.90
10344;DHT22;5217;43.960;10.954;2022-12-29T09:47:41;15.60;99.90
10344;DHT22;5217;43.960;10.954;2022-12-29T09:50:17;15.50;99.90
10344;DHT22;5217;43.960;10.954;2022-12-29T09:52:50;15.50;99.90
10344;DHT22;5217;43.960;10.954;2022-12-29T09:55:23;15.50;99.90
10344;DHT22;5217;43.960;10.954;2022-12-29T09:57:57;15.60;99.90
10344;DHT22;5217;43.960;10.954;2022-12-29T10:00:33;15.50;99.90
10344;DHT22;5217;43.960;10.954;2022-12-29T10:03:11;15.50;99.90
10344;DHT22;5217;43.960;10.954;2022-12-29T10:05:47;15.60;99.90
10344;DHT22;5217;43.960;10.954;2022-12-29T10:08:24;15.60;99.90
10344;DHT22;5217;43.960;10.954;2022-12-29T10:10:56;15.60;99.90
10344;DHT22;5217;43.960;10.954;2022-12-29T10:13:32;15.50;99.90
10344;DHT22;5217;43.960;10.954;2022-12-29T10:16:06;15.50;99.90
10344;DHT22;5217;43.960;10.954;2022-12-29T10:19:00;15.60;99.90
10344;DHT22;5217;43.960;10.954;2022-12-29T10:21:43;15.60;99.90
10344;DHT22;5217;43.960;10.954;2022-12-29T10:24:14;15.60;99.90
10344;DHT22;5217;43.960;10.954;2022-12-29T10:26:44;15.60;99.90
10344;DHT22;5217;43.960;10.954;2022-12-29T10:29:17;15.60;99.90
10344;DHT22;5217;43.960;10.954;2022-12-29T10:31:49;15.60;99.90
10344;DHT22;5217;43.960;10.954;2022-12-29T10:34:22;15.60;99.90
10344;DHT22;5217;43.960;10.954;2022-12-29T10:36:57;15.70;99.90
10344;DHT22;5217;43.960;10.954;2022-12-29T10:39:30;15.60;99.90
10344;DHT22;5217;43.960;10.954;2022-12-29T10:42:04;15.70;99.90
10344;DHT22;5217;43.960;10.954;2022-12-29T10:44:35;15.60;99.90
10344;DHT22;5217;43.960;10.954;2022-12-29T10:47:06;15.70;99.90
10344;DHT22;5217;43.960;10.954;2022-12-29T10:49:40;15.70;99.90
10344;DHT22;5217;43.960;10.954;2022-12-29T10:52:11;15.70;99.90
10344;DHT22;5217;43.960;10.954;2022-12-29T10:54:44;15.70;99.90
10344;DHT22;5217;43.960;10.954;2022-12-29T10:57:20;15.70;99.90
10344;DHT22;5217;43.960;10.954;2022-12-29T10:59:51;15.70;99.90
10344;DHT22;5217;43.960;10.954;2022-12-29T11:02:43;15.70;99.90
10344;DHT22;5217;43.960;10.954;2022-12-29T11:05:23;15.70;99.90
10344;DHT22;5217;43.960;10.954;2022-12-29T11:07:58;15.70;99.90
10344;DHT22;5217;43.960;10.954;2022-12-29T11:10:36;15.70;99.90
10344;DHT22;5217;43.960;10.954;2022-12-29T11:13:11;15.80;99.90
10344;DHT22;5217;43.960;10.954;2022-12-29T11:15:42;15.80;99.90
10344;DHT22;5217;43.960;10.954;2022-12-29T11:18:20;15.80;99.90
10344;DHT22;5217;43.960;10.954;2022-12-29T11:20:51;15.80;99.90
10344;DHT22;5217;43.960;10.954;2022-12-29T11:23:29;15.80;99.90
10344;DHT22;5217;43.960;10.954;2022-12-29T11:26:16;15.80;99.90
10344;DHT22;5217;43.960;10.954;2022-12-29T11:28:47;15.90;99.90
10344;DHT22;5217;43.960;10.954;2022-12-29T11:31:16;15.90;99.90
10344;DHT22;5217;43.960;10.954;2022-12-29T11:33:45;16.00;99.90
10344;DHT22;5217;43.960;10.954;2022-12-29T11:36:17;16.00;99.90
10344;DHT22;5217;43.960;10.954;2022-12-29T11:38:50;16.10;99.90
10344;DHT22;5217;43.960;10.954;2022-12-29T11:41:22;16.20;99.90
10344;DHT22;5217;43.960;10.954;2022-12-29T11:43:52;16.40;99.90
10344;DHT22;5217;43.960;10.954;2022-12-29T11:46:23;16.40;99.90
10344;DHT22;5217;43.960;10.954;2022-12-29T11:48:53;16.50;99.90
10344;DHT22;5217;43.960;10.954;2022-12-29T11:51:29;16.60;99.90
10344;DHT22;5217;43.960;10.954;2022-12-29T11:54:00;16.70;99.90
10344;DHT22;5217;43.960;10.954;2022-12-29T11:56:35;16.70;99.90
10344;DHT22;5217;43.960;10.954;2022-12-29T11:59:42;16.70;99.90
10344;DHT22;5217;43.960;10.954;2022-12-29T12:02:25;16.70;99.90
10344;DHT22;5217;43.960;10.954;2022-12-29T12:05:01;16.70;99.90
10344;DHT22;5217;43.960;10.954;2022-12-29T12:07:39;16.70;99.90
10344;DHT22;5217;43.960;10.954;2022-12-29T12:10:19;16.70;99.90
10344;DHT22;5217;43.960;10.954;2022-12-29T12:12:58;16.70;99.90
10344;DHT22;5217;43.960;10.954;2022-12-29T12:15:31;16.70;99.90
10344;DHT22;5217;43.960;10.954;2022-12-29T12:18:15;16.70;99.90
10344;DHT22;5217;43.960;10.954;2022-12-29T12:20:49;16.70;99.90
10344;DHT22;5217;43.960;10.954;2022-12-29T12:23:54;16.70;99.90
10344;DHT22;5217;43.960;10.954;2022-12-29T12:26:32;16.70;99.90
10344;DHT22;5217;43.960;10.954;2022-12-29T12:29:08;16.70;99.90
10344;DHT22;5217;43.960;10.954;2022-12-29T12:31:45;16.70;99.90
10344;DHT22;5217;43.960;10.954;2022-12-29T12:34:19;16.70;99.90
10344;DHT22;5217;43.960;10.954;2022-12-29T12:37:10;16.80;99.90
10344;DHT22;5217;43.960;10.954;2022-12-29T12:39:56;17.00;99.90
10344;DHT22;5217;43.960;10.954;2022-12-29T12:42:39;17.00;99.90
10344;DHT22;5217;43.960;10.954;2022-12-29T12:45:40;17.00;99.90
10344;DHT22;5217;43.960;10.954;2022-12-29T12:48:24;17.10;99.90
10344;DHT22;5217;43.960;10.954;2022-12-29T12:51:01;17.10;99.90
10344;DHT22;5217;43.960;10.954;2022-12-29T12:53:41;17.10;99.90
10344;DHT22;5217;43.960;10.954;2022-12-29T12:56:43;17.10;99.90
10344;DHT22;5217;43.960;10.954;2022-12-29T12:59:26;17.10;99.90
10344;DHT22;5217;43.960;10.954;2022-12-29T13:02:03;17.10;99.90
10344;DHT22;5217;43.960;10.954;2022-12-29T13:08:02;17.10;99.90
10344;DHT22;5217;43.960;10.954;2022-12-29T13:10:41;17.10;99.90
10344;DHT22;5217;43.960;10.954;2022-12-29T13:13:36;17.10;99.90
10344;DHT22;5217;43.960;10.954;2022-12-29T13:16:10;17.10;99.90
10344;DHT22;5217;43.960;10.954;2022-12-29T13:18:48;17.10;99.90
10344;DHT22;5217;43.960;10.954;2022-12-29T13:21:39;17.10;99.90
10344;DHT22;5217;43.960;10.954;2022-12-29T13:24:22;17.20;99.90
10344;DHT22;5217;43.960;10.954;2022-12-29T13:26:56;17.20;99.90
10344;DHT22;5217;43.960;10.954;2022-12-29T13:29:33;17.20;99.90
10344;DHT22;5217;43.960;10.954;2022-12-29T13:32:17;17.30;99.90
10344;DHT22;5217;43.960;10.954;2022-12-29T13:35:00;17.30;99.90
10344;DHT22;5217;43.960;10.954;2022-12-29T13:37:32;17.30;99.90
10344;DHT22;5217;43.960;10.954;2022-12-29T13:40:10;17.30;99.90
10344;DHT22;5217;43.960;10.954;2022-12-29T13:42:40;17.20;99.90
10344;DHT22;5217;43.960;10.954;2022-12-29T13:45:14;17.20;99.90
10344;DHT22;5217;43.960;10.954;2022-12-29T13:47:47;17.20;99.90
10344;DHT22;5217;43.960;10.954;2022-12-29T13:50:19;17.20;99.90
10344;DHT22;5217;43.960;10.954;2022-12-29T13:52:55;17.10;99.90
10344;DHT22;5217;43.960;10.954;2022-12-29T13:55:31;17.10;99.90
10344;DHT22;5217;43.960;10.954;2022-12-29T13:58:03;17.10;99.90
10344;DHT22;5217;43.960;10.954;2022-12-29T14:00:42;17.10;99.90
10344;DHT22;5217;43.960;10.954;2022-12-29T14:03:44;17.10;99.90
10344;DHT22;5217;43.960;10.954;2022-12-29T14:06:21;17.20;99.90
10344;DHT22;5217;43.960;10.954;2022-12-29T14:08:53;17.20;99.90
10344;DHT22;5217;43.960;10.954;2022-12-29T14:11:25;17.20;99.90
10344;DHT22;5217;43.960;10.954;2022-12-29T14:13:57;17.30;99.90
10344;DHT22;5217;43.960;10.954;2022-12-29T14:16:30;17.30;99.90
10344;DHT22;5217;43.960;10.954;2022-12-29T14:19:11;17.30;99.90
10344;DHT22;5217;43.960;10.954;2022-12-29T14:21:41;17.30;99.90
10344;DHT22;5217;43.960;10.954;2022-12-29T14:24:39;17.40;99.90
10344;DHT22;5217;43.960;10.954;2022-12-29T14:30:48;17.30;99.90
10344;DHT22;5217;43.960;10.954;2022-12-29T14:33:20;17.30;99.90
10344;DHT22;5217;43.960;10.954;2022-12-29T14:35:50;17.30;99.90
10344;DHT22;5217;43.960;10.954;2022-12-29T14:38:22;17.30;99.90
10344;DHT22;5217;43.960;10.954;2022-12-29T14:40:51;17.30;99.90
10344;DHT22;5217;43.960;10.954;2022-12-29T14:43:23;17.30;99.90
10344;DHT22;5217;43.960;10.954;2022-12-29T14:45:55;17.30;99.90
10344;DHT22;5217;43.960;10.954;2022-12-29T14:48:37;17.20;99.90
10344;DHT22;5217;43.960;10.954;2022-12-29T14:51:21;17.20;99.90
10344;DHT22;5217;43.960;10.954;2022-12-29T14:53:54;17.20;99.90
10344;DHT22;5217;43.960;10.954;2022-12-29T14:56:26;17.20;99.90
10344;DHT22;5217;43.960;10.954;2022-12-29T14:58:57;17.20;99.90
10344;DHT22;5217;43.960;10.954;2022-12-29T15:01:36;17.20;99.90
10344;DHT22;5217;43.960;10.954;2022-12-29T15:04:15;17.20;99.90
10344;DHT22;5217;43.960;10.954;2022-12-29T15:06:45;17.10;99.90
10344;DHT22;5217;43.960;10.954;2022-12-29T15:09:23;17.10;99.90
10344;DHT22;5217;43.960;10.954;2022-12-29T15:11:55;17.10;99.90
10344;DHT22;5217;43.960;10.954;2022-12-29T15:14:29;17.10;99.90
10344;DHT22;5217;43.960;10.954;2022-12-29T15:16:58;17.10;99.90
10344;DHT22;5217;43.960;10.954;2022-12-29T15:19:28;17.10;99.90
10344;DHT22;5217;43.960;10.954;2022-12-29T15:21:56;17.10;99.90
10344;DHT22;5217;43.960;10.954;2022-12-29T15:24:25;17.10;99.90
10344;DHT22;5217;43.960;10.954;2022-12-29T15:26:54;17.10;99.90
10344;DHT22;5217;43.960;10.954;2022-12-29T15:29:32;17.00;99.90
10344;DHT22;5217;43.960;10.954;2022-12-29T15:32:17;17.00;99.90
10344;DHT22;5217;43.960;10.954;2022-12-29T15:34:49;17.00;99.90
10344;DHT22;5217;43.960;10.954;2022-12-29T15:37:19;17.00;99.90
10344;DHT22;5217;43.960;10.954;2022-12-29T15:39:48;17.00;99.90
10344;DHT22;5217;43.960;10.954;2022-12-29T15:42:32;16.90;99.90
10344;DHT22;5217;43.960;10.954;2022-12-29T15:45:05;17.00;99.90
10344;DHT22;5217;43.960;10.954;2022-12-29T15:47:38;16.90;99.90
10344;DHT22;5217;43.960;10.954;2022-12-29T15:50:19;16.90;99.90
10344;DHT22;5217;43.960;10.954;2022-12-29T15:52:50;16.90;99.90
10344;DHT22;5217;43.960;10.954;2022-12-29T15:55:26;16.90;99.90
10344;DHT22;5217;43.960;10.954;2022-12-29T15:57:57;16.90;99.90
10344;DHT22;5217;43.960;10.954;2022-12-29T16:00:27;16.90;99.90
10344;DHT22;5217;43.960;10.954;2022-12-29T16:02:57;16.90;99.90
10344;DHT22;5217;43.960;10.954;2022-12-29T16:05:34;16.90;99.90
10344;DHT22;5217;43.960;10.954;2022-12-29T16:08:03;16.90;99.90
10344;DHT22;5217;43.960;10.954;2022-12-29T16:10:36;16.80;99.90
10344;DHT22;5217;43.960;10.954;2022-12-29T16:13:16;16.80;99.90
10344;DHT22;5217;43.960;10.954;2022-12-29T16:15:47;16.80;99.90
10344;DHT22;5217;43.960;10.954;2022-12-29T16:18:23;16.80;99.90